createdAt,value
2024-04-15T00:01:45.341Z,70.37
2024-04-15T00:04:14.972Z,70.27
2024-04-15T00:06:42.178Z,70.00
2024-04-15T00:09:09.391Z,70.05
2024-04-15T00:11:36.737Z,69.45
2024-04-15T00:14:03.786Z,68.97
2024-04-15T00:16:32.638Z,68.74
2024-04-15T00:18:59.970Z,68.44
2024-04-15T00:21:27.167Z,69.19
2024-04-15T00:23:54.356Z,69.14
2024-04-15T00:26:21.493Z,68.55
2024-04-15T00:28:49.353Z,69.36
2024-04-15T00:31:16.537Z,68.89
2024-04-15T00:33:47.970Z,69.04
2024-04-15T00:36:15.210Z,68.95
2024-04-15T00:38:42.276Z,68.42
2024-04-15T00:41:09.388Z,67.99
2024-04-15T00:43:36.479Z,68.02
2024-04-15T00:46:03.976Z,68.19
2024-04-15T00:48:32.546Z,66.70
2024-04-15T00:50:59.720Z,67.47
2024-04-15T00:53:27.155Z,67.08
2024-04-15T00:55:58.113Z,67.58
2024-04-15T00:58:26.848Z,68.09
2024-04-15T01:00:55.524Z,67.88
2024-04-15T01:03:23.748Z,68.22
2024-04-15T01:05:51.536Z,67.79
2024-04-15T01:08:19.111Z,67.55
2024-04-15T01:10:55.552Z,67.52
2024-04-15T01:13:27.943Z,67.56
2024-04-15T01:16:02.339Z,67.07
2024-04-15T01:18:30.663Z,67.68
2024-04-15T01:20:59.459Z,66.78
2024-04-15T01:23:35.121Z,66.88
2024-04-15T01:26:02.366Z,67.47
2024-04-15T01:28:29.448Z,66.95
2024-04-15T01:30:56.705Z,67.59
2024-04-15T01:33:23.870Z,68.09
2024-04-15T01:35:51.130Z,67.92
2024-04-15T01:38:18.255Z,68.13
2024-04-15T01:40:45.445Z,67.65
2024-04-15T01:43:12.942Z,68.56
2024-04-15T01:45:40.213Z,68.80
2024-04-15T01:48:07.731Z,67.23
2024-04-15T01:50:34.960Z,67.63
2024-04-15T01:53:02.155Z,66.52
2024-04-15T01:55:29.532Z,68.33
2024-04-15T01:57:56.639Z,67.51
2024-04-15T02:00:23.804Z,66.95
2024-04-15T02:02:50.930Z,66.94
2024-04-15T02:05:18.112Z,66.20
2024-04-15T02:07:45.331Z,66.24
2024-04-15T02:10:12.474Z,66.16
2024-04-15T02:12:39.607Z,66.27
2024-04-15T02:15:07.013Z,66.20
2024-04-15T02:17:35.809Z,66.64
2024-04-15T02:20:02.962Z,65.60
2024-04-15T02:22:31.543Z,66.59
2024-04-15T02:24:58.610Z,65.94
2024-04-15T02:27:25.705Z,66.44
2024-04-15T02:29:52.935Z,65.77
2024-04-15T02:32:20.586Z,66.20
2024-04-15T02:34:48.048Z,66.01
2024-04-15T02:37:15.191Z,66.83
2024-04-15T02:39:42.732Z,65.91
2024-04-15T02:42:09.957Z,67.06
2024-04-15T02:44:37.056Z,66.74
2024-04-15T02:47:04.509Z,66.27
2024-04-15T02:49:31.743Z,67.19
2024-04-15T02:51:58.829Z,67.36
2024-04-15T02:54:25.998Z,67.00
2024-04-15T02:56:53.248Z,66.83
2024-04-15T02:59:20.286Z,66.45
2024-04-15T03:01:47.430Z,67.89
2024-04-15T03:04:14.636Z,67.70
2024-04-15T03:06:41.881Z,67.64
2024-04-15T03:09:09.763Z,67.63
2024-04-15T03:11:36.929Z,68.34
2024-04-15T03:14:04.288Z,69.01
2024-04-15T03:16:31.534Z,68.22
2024-04-15T03:18:58.773Z,69.07
2024-04-15T03:21:26.209Z,68.05
2024-04-15T03:23:53.527Z,68.78
2024-04-15T03:26:20.669Z,68.72
2024-04-15T03:28:47.917Z,67.89
2024-04-15T03:31:15.096Z,67.85
2024-04-15T03:33:42.601Z,68.12
2024-04-15T03:36:09.864Z,68.12
2024-04-15T03:38:38.068Z,67.29
2024-04-15T03:41:05.292Z,64.49
2024-04-15T03:43:35.789Z,62.17
2024-04-15T03:46:04.200Z,59.55
2024-04-15T03:48:33.226Z,57.75
2024-04-15T03:51:00.390Z,54.66
2024-04-15T03:53:28.734Z,54.58
2024-04-15T03:55:56.750Z,52.08
2024-04-15T03:58:24.114Z,50.13
2024-04-15T04:00:51.464Z,47.24
2024-04-15T04:03:19.415Z,46.96
2024-04-15T04:06:09.483Z,45.03
2024-04-15T04:08:41.087Z,43.72
2024-04-15T04:11:08.862Z,41.46
2024-04-15T04:13:37.280Z,40.10
2024-04-15T04:16:05.166Z,39.77
2024-04-15T04:18:33.218Z,37.85
2024-04-15T04:21:09.778Z,36.31
2024-04-15T04:23:37.159Z,34.84
2024-04-15T04:26:04.821Z,34.62
2024-04-15T04:28:32.706Z,34.01
2024-04-15T04:31:06.532Z,32.82
2024-04-15T04:33:36.349Z,31.79
2024-04-15T04:36:03.628Z,31.34
2024-04-15T04:38:31.061Z,30.93
2024-04-15T04:41:02.090Z,29.59
2024-04-15T04:43:29.632Z,29.16
2024-04-15T04:45:56.836Z,28.43
2024-04-15T04:48:24.085Z,27.35
2024-04-15T04:50:51.732Z,27.79
2024-04-15T04:53:19.389Z,27.61
2024-04-15T04:55:46.566Z,27.60
2024-04-15T04:58:14.997Z,26.79
2024-04-15T05:00:42.177Z,26.78
2024-04-15T05:03:09.425Z,27.35
2024-04-15T05:05:36.588Z,28.07
2024-04-15T05:08:03.940Z,27.72
2024-04-15T05:10:31.313Z,27.37
2024-04-15T05:12:58.586Z,26.50
2024-04-15T05:15:28.034Z,26.32
2024-04-15T05:17:55.357Z,24.96
2024-04-15T05:20:22.612Z,24.18
2024-04-15T05:22:49.987Z,23.54
2024-04-15T05:25:17.327Z,23.76
2024-04-15T05:27:44.936Z,23.87
2024-04-15T05:30:12.513Z,22.90
2024-04-15T05:32:39.755Z,23.04
2024-04-15T05:35:07.141Z,22.38
2024-04-15T05:37:34.436Z,21.46
2024-04-15T05:40:01.704Z,22.39
2024-04-15T05:42:30.564Z,21.71
2024-04-15T05:44:57.622Z,21.05
2024-04-15T05:47:25.977Z,21.02
2024-04-15T05:49:53.144Z,21.27
2024-04-15T05:52:20.308Z,20.92
2024-04-15T05:54:47.480Z,22.05
2024-04-15T05:57:14.632Z,22.43
2024-04-15T05:59:41.939Z,23.04
2024-04-15T06:02:09.255Z,24.14
2024-04-15T06:04:37.036Z,24.76
2024-04-15T06:07:04.392Z,25.39
2024-04-15T06:09:32.288Z,26.04
2024-04-15T06:11:59.722Z,27.42
2024-04-15T06:14:27.280Z,28.71
2024-04-15T06:16:55.426Z,27.36
2024-04-15T06:19:22.982Z,27.14
2024-04-15T06:21:50.123Z,26.17
2024-04-15T06:24:17.314Z,24.93
2024-04-15T06:26:44.475Z,22.80
2024-04-15T06:29:11.602Z,22.35
2024-04-15T06:31:38.744Z,20.72
2024-04-15T06:34:06.171Z,21.32
2024-04-15T06:36:33.536Z,21.15
2024-04-15T06:39:00.959Z,21.33
2024-04-15T06:41:28.272Z,22.69
2024-04-15T06:43:55.465Z,24.29
2024-04-15T06:46:24.303Z,26.13
2024-04-15T06:48:51.556Z,26.20
2024-04-15T06:51:18.734Z,25.01
2024-04-15T06:53:45.878Z,26.04
2024-04-15T06:56:13.249Z,25.75
2024-04-15T06:58:40.530Z,26.60
2024-04-15T07:01:08.169Z,26.58
2024-04-15T07:03:35.470Z,26.42
2024-04-15T07:06:02.667Z,23.76
2024-04-15T07:08:29.727Z,22.46
2024-04-15T07:10:57.043Z,21.63
2024-04-15T07:13:24.358Z,23.41
2024-04-15T07:15:51.711Z,23.33
2024-04-15T07:18:19.044Z,21.64
2024-04-15T07:20:47.342Z,20.23
2024-04-15T07:23:19.607Z,19.61
2024-04-15T07:25:51.055Z,18.28
2024-04-15T07:28:18.747Z,17.10
2024-04-15T07:30:45.900Z,18.61
2024-04-15T07:33:13.098Z,19.72
2024-04-15T07:35:41.039Z,20.14
2024-04-15T07:38:08.409Z,20.52
2024-04-15T07:40:36.424Z,22.21
2024-04-15T07:43:03.942Z,22.97
2024-04-15T07:45:31.178Z,24.11
2024-04-15T07:47:58.478Z,21.00
2024-04-15T07:50:26.772Z,21.43
2024-04-15T07:52:53.960Z,21.30
2024-04-15T07:55:21.107Z,23.20
2024-04-15T07:57:48.331Z,24.66
2024-04-15T08:00:15.638Z,25.38
2024-04-15T08:02:48.878Z,24.81
2024-04-15T08:05:20.362Z,26.57
2024-04-15T08:07:52.189Z,26.97
2024-04-15T08:10:29.840Z,29.00
2024-04-15T08:12:57.053Z,29.49
2024-04-15T08:15:24.239Z,30.82
2024-04-15T08:17:51.686Z,32.63
2024-04-15T08:20:18.916Z,31.50
2024-04-15T08:22:49.252Z,31.67
2024-04-15T08:25:17.943Z,30.60
2024-04-15T08:27:45.381Z,29.00
2024-04-15T08:30:12.803Z,29.96
2024-04-15T08:32:42.399Z,30.81
2024-04-15T08:35:10.185Z,31.49
2024-04-15T08:37:37.417Z,31.56
2024-04-15T08:40:06.496Z,31.41
2024-04-15T08:42:50.470Z,30.52
2024-04-15T08:45:20.784Z,31.03
2024-04-15T08:47:54.390Z,31.24
2024-04-15T08:50:23.157Z,30.27
2024-04-15T08:52:54.367Z,30.03
2024-04-15T08:55:26.251Z,28.95
2024-04-15T08:57:54.490Z,28.94
2024-04-15T09:00:23.151Z,29.79
2024-04-15T09:02:54.206Z,30.32
2024-04-15T09:05:21.625Z,31.74
2024-04-15T09:07:50.866Z,32.63
2024-04-15T09:10:18.152Z,33.44
2024-04-15T09:12:45.535Z,33.96
2024-04-15T09:15:15.436Z,35.71
2024-04-15T09:17:42.998Z,35.50
2024-04-15T09:20:11.843Z,35.80
2024-04-15T09:22:39.173Z,36.11
2024-04-15T09:25:07.077Z,35.47
2024-04-15T09:27:34.383Z,36.63
2024-04-15T09:30:02.733Z,36.03
2024-04-15T09:32:36.935Z,36.83
2024-04-15T09:35:07.360Z,36.69
2024-04-15T09:37:35.827Z,37.12
2024-04-15T09:40:05.824Z,36.85
2024-04-15T09:42:35.050Z,37.89
2024-04-15T09:45:03.260Z,38.37
2024-04-15T09:47:33.447Z,37.45
2024-04-15T09:50:00.701Z,37.89
2024-04-15T09:52:33.210Z,38.41
2024-04-15T09:55:08.170Z,38.11
2024-04-15T09:57:42.700Z,38.79
2024-04-15T10:00:18.376Z,39.08
2024-04-15T10:03:23.899Z,40.06
2024-04-15T10:05:55.104Z,39.55
2024-04-15T10:08:25.679Z,38.62
2024-04-15T10:10:53.138Z,38.42
2024-04-15T10:13:21.086Z,39.43
2024-04-15T10:16:00.343Z,40.27
2024-04-15T10:18:30.598Z,40.57
2024-04-15T10:21:00.573Z,40.46
2024-04-15T10:23:29.444Z,40.20
2024-04-15T10:25:56.643Z,40.13
2024-04-15T10:28:23.982Z,40.29
2024-04-15T10:30:51.332Z,40.70
2024-04-15T10:33:21.503Z,39.75
2024-04-15T10:35:53.849Z,41.32
2024-04-15T10:38:21.452Z,40.75
2024-04-15T10:40:50.090Z,40.52
2024-04-15T10:48:10.759Z,39.85
2024-04-15T10:50:41.427Z,40.37
2024-04-15T10:53:57.952Z,40.05
2024-04-15T10:56:52.669Z,40.69
2024-04-15T10:59:20.230Z,39.78
2024-04-15T11:01:47.642Z,39.44
2024-04-15T11:04:15.672Z,40.64
2024-04-15T11:06:43.339Z,39.35
2024-04-15T11:09:10.993Z,40.29
2024-04-15T11:11:41.832Z,39.70
2024-04-15T11:14:13.964Z,39.61
2024-04-15T11:16:51.034Z,40.31
2024-04-15T11:19:19.755Z,39.86
2024-04-15T11:21:47.725Z,40.74
2024-04-15T11:24:15.385Z,41.48
2024-04-15T11:26:46.099Z,41.08
2024-04-15T11:29:14.921Z,42.24
2024-04-15T11:31:43.228Z,42.11
2024-04-15T11:34:12.107Z,42.49
2024-04-15T11:36:41.859Z,42.89
2024-04-15T11:39:09.212Z,42.87
2024-04-15T11:41:37.414Z,43.59
2024-04-15T11:44:05.092Z,43.20
2024-04-15T11:46:32.637Z,46.02
2024-04-15T11:49:00.725Z,46.90
2024-04-15T11:51:28.551Z,46.97
2024-04-15T11:53:57.322Z,47.71
2024-04-15T11:56:24.729Z,46.82
2024-04-15T11:58:52.370Z,47.39
2024-04-15T12:01:20.243Z,46.85
2024-04-15T12:03:47.673Z,46.80
2024-04-15T12:06:18.798Z,46.82
2024-04-15T12:08:56.639Z,46.82
2024-04-15T12:11:24.363Z,46.26
2024-04-15T12:13:51.562Z,46.80
2024-04-15T12:16:18.789Z,47.30
2024-04-15T12:18:46.130Z,48.04
2024-04-15T12:21:13.280Z,46.49
2024-04-15T12:23:40.390Z,47.42
2024-04-15T12:26:08.321Z,48.04
2024-04-15T12:28:35.533Z,48.13
2024-04-15T12:31:02.721Z,48.11
2024-04-15T12:33:32.565Z,48.45
2024-04-15T12:36:00.889Z,48.97
2024-04-15T12:38:28.266Z,50.59
2024-04-15T12:40:55.955Z,50.96
2024-04-15T12:43:23.191Z,52.67
2024-04-15T12:45:50.390Z,53.52
2024-04-15T12:48:19.435Z,56.38
2024-04-15T12:50:49.456Z,56.67
2024-04-15T12:53:19.899Z,55.03
2024-04-15T12:55:47.849Z,55.20
2024-04-15T12:58:15.219Z,55.58
2024-04-15T13:00:43.906Z,54.00
2024-04-15T13:03:11.850Z,56.03
2024-04-15T13:05:39.269Z,56.23
2024-04-15T13:08:07.091Z,56.82
2024-04-15T13:10:34.512Z,56.70
2024-04-15T13:13:01.872Z,56.88
2024-04-15T13:15:29.101Z,57.39
2024-04-15T13:17:59.764Z,59.43
2024-04-15T13:20:27.467Z,56.03
2024-04-15T13:22:57.689Z,55.76
2024-04-15T13:25:24.974Z,54.94
2024-04-15T13:27:52.169Z,54.40
2024-04-15T13:30:19.379Z,54.18
2024-04-15T13:32:46.990Z,54.34
2024-04-15T13:35:14.534Z,54.00
2024-04-15T13:37:42.219Z,53.70
2024-04-15T13:40:09.706Z,53.43
2024-04-15T13:42:36.898Z,53.90
2024-04-15T13:45:04.790Z,53.32
2024-04-15T13:47:32.623Z,53.13
2024-04-15T13:49:59.885Z,53.20
2024-04-15T13:52:32.013Z,52.65
2024-04-15T13:55:00.385Z,53.14
2024-04-15T13:57:30.301Z,52.51
2024-04-15T13:59:58.622Z,52.83
2024-04-15T14:02:26.939Z,52.20
2024-04-15T14:04:54.382Z,52.35
2024-04-15T14:07:26.788Z,51.52
2024-04-15T14:09:58.157Z,52.51
2024-04-15T14:12:25.419Z,51.50
2024-04-15T14:14:52.647Z,51.87
2024-04-15T14:17:20.594Z,50.27
2024-04-15T14:19:48.250Z,51.39
2024-04-15T14:22:15.583Z,51.28
2024-04-15T14:24:43.234Z,51.51
2024-04-15T14:27:11.090Z,51.57
2024-04-15T14:29:40.277Z,52.26
2024-04-15T14:32:18.128Z,51.91
2024-04-15T14:34:47.617Z,51.75
2024-04-15T14:37:16.428Z,52.03
2024-04-15T14:39:43.635Z,51.46
2024-04-15T14:42:10.963Z,51.48
2024-04-15T14:44:38.217Z,51.46
2024-04-15T14:47:05.835Z,51.57
2024-04-15T14:49:33.222Z,51.54
2024-04-15T14:52:00.482Z,51.94
2024-04-15T14:54:27.614Z,52.24
2024-04-15T14:56:54.952Z,52.84
2024-04-15T14:59:22.188Z,55.49
2024-04-15T15:01:49.461Z,57.66
2024-04-15T15:04:18.390Z,59.30
2024-04-15T15:06:45.649Z,60.42
2024-04-15T15:09:14.328Z,61.12
2024-04-15T15:11:41.448Z,61.72
2024-04-15T15:14:08.708Z,62.24
2024-04-15T15:16:36.165Z,61.92
2024-04-15T15:19:04.072Z,62.36
2024-04-15T15:21:31.215Z,61.58
2024-04-15T15:23:58.278Z,62.15
2024-04-15T15:26:26.089Z,62.36
2024-04-15T15:28:53.301Z,63.21
2024-04-15T15:31:20.496Z,63.76
2024-04-15T15:33:51.287Z,62.80
2024-04-15T15:36:20.385Z,61.20
2024-04-15T15:38:48.109Z,61.69
2024-04-15T15:41:18.279Z,61.40
2024-04-15T15:43:45.540Z,60.31
2024-04-15T15:46:17.955Z,62.25
2024-04-15T15:48:46.979Z,61.50
2024-04-15T15:51:14.140Z,62.17
2024-04-15T15:53:42.527Z,62.26
2024-04-15T15:56:12.177Z,62.78
2024-04-15T15:58:40.359Z,62.17
2024-04-15T16:01:08.126Z,61.60
2024-04-15T16:03:35.358Z,62.41
2024-04-15T16:06:02.986Z,63.14
2024-04-15T16:08:31.218Z,62.97
2024-04-15T16:10:58.514Z,63.41
2024-04-15T16:13:25.839Z,64.65
2024-04-15T16:15:53.046Z,65.31
2024-04-15T16:18:20.273Z,65.24
2024-04-15T16:20:50.140Z,65.30
2024-04-15T16:23:17.292Z,65.61
2024-04-15T16:25:44.441Z,65.18
2024-04-15T16:28:12.254Z,65.09
2024-04-15T16:30:39.394Z,65.97
2024-04-15T16:33:06.736Z,66.68
2024-04-15T16:35:33.968Z,67.40
2024-04-15T16:38:01.201Z,67.80
2024-04-15T16:40:28.629Z,68.22
2024-04-15T16:42:55.950Z,67.51
2024-04-15T16:45:23.466Z,67.28
2024-04-15T16:47:51.439Z,68.90
2024-04-15T16:50:23.956Z,67.85
2024-04-15T16:52:51.108Z,66.46
2024-04-15T16:55:18.627Z,67.03
2024-04-15T16:57:45.842Z,67.40
2024-04-15T17:00:14.348Z,67.31
2024-04-15T17:02:41.895Z,66.84
2024-04-15T17:05:10.108Z,67.36
2024-04-15T17:07:41.499Z,67.98
2024-04-15T17:10:13.259Z,67.71
2024-04-15T17:12:45.206Z,68.66
2024-04-15T17:15:14.339Z,68.15
2024-04-15T17:17:43.487Z,68.24
2024-04-15T17:20:13.766Z,68.29
2024-04-15T17:22:42.228Z,67.44
2024-04-15T17:25:09.570Z,66.94
2024-04-15T17:27:37.115Z,67.97
2024-04-15T17:30:05.383Z,68.56
2024-04-15T17:32:32.768Z,68.44
2024-04-15T17:35:02.373Z,68.24
2024-04-15T17:37:31.558Z,67.92
2024-04-15T17:40:01.221Z,68.46
2024-04-15T17:42:31.301Z,68.14
2024-04-15T17:44:58.487Z,67.41
2024-04-15T17:47:25.744Z,66.62
2024-04-15T17:49:53.516Z,67.95
2024-04-15T17:52:21.856Z,67.82
2024-04-15T17:54:49.312Z,67.27
2024-04-15T17:57:17.805Z,66.97
2024-04-15T17:59:45.428Z,67.21
2024-04-15T18:02:13.123Z,67.15
2024-04-15T18:04:41.645Z,66.28
2024-04-15T18:07:11.388Z,66.43
2024-04-15T18:09:39.871Z,66.61
2024-04-15T18:12:08.752Z,66.98
2024-04-15T18:14:36.226Z,67.35
2024-04-15T18:17:03.926Z,67.62
2024-04-15T18:19:31.331Z,68.42
2024-04-15T18:21:58.746Z,68.78
2024-04-15T18:24:28.858Z,69.03
2024-04-15T18:26:56.446Z,69.21
2024-04-15T18:29:23.808Z,69.62
2024-04-15T18:31:51.006Z,69.98
2024-04-15T18:34:18.220Z,69.86
2024-04-15T18:36:48.748Z,69.76
2024-04-15T18:39:17.031Z,68.80
2024-04-15T18:41:44.261Z,68.53
2024-04-15T18:44:11.524Z,68.52
2024-04-15T18:46:38.744Z,67.88
2024-04-15T18:49:06.990Z,67.75
2024-04-15T18:51:34.352Z,67.49
2024-04-15T18:54:01.504Z,67.93
2024-04-15T18:56:28.849Z,67.19
2024-04-15T18:58:56.013Z,67.26
2024-04-15T19:01:23.187Z,67.63
2024-04-15T19:03:50.583Z,67.39
2024-04-15T19:06:18.186Z,66.84
2024-04-15T19:08:45.297Z,67.00
2024-04-15T19:11:12.560Z,67.46
2024-04-15T19:13:39.725Z,67.46
2024-04-15T19:16:08.867Z,67.48
2024-04-15T19:18:36.349Z,67.06
2024-04-15T19:21:03.807Z,67.50
2024-04-15T19:23:30.904Z,67.48
2024-04-15T19:25:58.794Z,67.75
2024-04-15T19:28:26.065Z,67.00
2024-04-15T19:30:53.211Z,66.96
2024-04-15T19:33:21.725Z,67.31
2024-04-15T19:35:49.152Z,67.37
2024-04-15T19:38:16.441Z,65.93
2024-04-15T19:40:43.868Z,66.16
2024-04-15T19:43:11.194Z,66.66
2024-04-15T19:45:38.677Z,66.65
2024-04-15T19:48:06.332Z,66.54
2024-04-15T19:50:33.580Z,67.41
2024-04-15T19:53:01.151Z,67.77
2024-04-15T19:55:28.691Z,67.60
2024-04-15T19:57:56.147Z,67.41
2024-04-15T20:00:23.264Z,67.34
2024-04-15T20:02:50.649Z,66.95
2024-04-15T20:05:17.864Z,67.19
2024-04-15T20:07:46.829Z,67.94
2024-04-15T20:10:14.019Z,67.57
2024-04-15T20:12:41.239Z,67.59
2024-04-15T20:15:08.466Z,67.37
2024-04-15T20:17:44.173Z,67.30
2024-04-15T20:20:16.169Z,66.95
2024-04-15T20:22:44.364Z,66.79
2024-04-15T20:25:12.171Z,66.60
2024-04-15T20:27:39.744Z,66.54
2024-04-15T20:30:08.044Z,66.78
2024-04-15T20:32:35.279Z,66.87
2024-04-15T20:35:02.578Z,66.56
2024-04-15T20:37:30.821Z,66.92
2024-04-15T20:39:58.125Z,66.68
2024-04-15T20:42:25.241Z,67.29
2024-04-15T20:44:54.359Z,67.20
2024-04-15T20:47:23.170Z,67.00
2024-04-15T20:49:50.353Z,66.74
2024-04-15T20:52:20.178Z,66.60
2024-04-15T20:54:47.403Z,66.91
2024-04-15T20:57:14.652Z,66.80
2024-04-15T20:59:41.786Z,67.04
2024-04-15T21:02:08.935Z,67.33
2024-04-15T21:04:36.301Z,67.14
2024-04-15T21:07:03.938Z,67.43
2024-04-15T21:09:31.020Z,67.74
2024-04-15T21:12:03.869Z,68.00
2024-04-15T21:14:31.232Z,67.80
2024-04-15T21:16:59.328Z,67.97
2024-04-15T21:19:26.561Z,67.89
2024-04-15T21:21:54.033Z,67.97
2024-04-15T21:24:21.219Z,68.43
2024-04-15T21:26:48.475Z,68.42
2024-04-15T21:29:15.638Z,68.37
2024-04-15T21:31:42.838Z,68.05
2024-04-15T21:34:10.152Z,68.38
2024-04-15T21:36:37.264Z,68.25
2024-04-15T21:39:04.540Z,68.26
2024-04-15T21:41:31.747Z,68.30
2024-04-15T21:43:58.897Z,68.25
2024-04-15T21:46:26.025Z,68.53
2024-04-15T21:48:53.265Z,68.27
2024-04-15T21:51:20.790Z,68.65
2024-04-15T21:53:47.912Z,68.79
2024-04-15T21:56:15.050Z,68.89
2024-04-15T21:58:43.247Z,68.52
2024-04-15T22:01:10.401Z,68.75
2024-04-15T22:03:37.695Z,68.73
2024-04-15T22:06:05.143Z,69.38
2024-04-15T22:08:33.667Z,68.79
2024-04-15T22:11:01.135Z,68.36
2024-04-15T22:13:28.801Z,68.25
2024-04-15T22:15:56.023Z,68.11
2024-04-15T22:18:23.262Z,67.60
2024-04-15T22:20:50.488Z,66.96
2024-04-15T22:23:17.735Z,66.80
2024-04-15T22:25:53.431Z,66.51
2024-04-15T22:28:21.753Z,67.07
2024-04-15T22:30:50.420Z,66.69
2024-04-15T22:33:18.166Z,66.85
2024-04-15T22:35:45.436Z,67.60
2024-04-15T22:38:15.430Z,67.56
2024-04-15T22:40:43.228Z,67.86
2024-04-15T22:43:12.662Z,67.56
2024-04-15T22:45:40.460Z,67.87
2024-04-15T22:48:07.894Z,68.08
2024-04-15T22:50:35.149Z,68.11
2024-04-15T22:53:02.234Z,68.61
2024-04-15T22:55:29.485Z,68.83
2024-04-15T22:57:56.775Z,68.71
2024-04-15T23:00:23.873Z,69.51
2024-04-15T23:02:51.037Z,68.76
2024-04-15T23:05:18.207Z,68.02
2024-04-15T23:07:45.359Z,68.15
2024-04-15T23:10:12.560Z,67.68
2024-04-15T23:12:39.789Z,67.77
2024-04-15T23:15:06.841Z,67.27
2024-04-15T23:17:34.138Z,67.19
2024-04-15T23:20:01.437Z,67.83
2024-04-15T23:22:30.657Z,67.68
2024-04-15T23:24:58.240Z,67.82
2024-04-15T23:27:25.531Z,67.32
2024-04-15T23:29:52.707Z,67.15
2024-04-15T23:32:19.795Z,67.22
2024-04-15T23:34:46.800Z,66.60
2024-04-15T23:37:13.843Z,66.65
2024-04-15T23:39:41.038Z,66.65
2024-04-15T23:42:08.291Z,67.26
2024-04-15T23:44:35.343Z,67.29
2024-04-15T23:47:21.385Z,66.98
2024-04-15T23:50:07.586Z,66.76
2024-04-15T23:52:54.011Z,67.19
2024-04-15T23:55:40.210Z,66.83
2024-04-15T23:58:13.359Z,67.11
